sensor_id;sensor_type;location;lat;lon;timestamp;P1;durP1;ratioP1;P2;durP2;ratioP2
28774;SDS011;15926;51.348;6.596;2023-12-22T00:01:14;2.60;;;0.47;;
28774;SDS011;15926;51.348;6.596;2023-12-22T00:03:42;7.70;;;1.10;;
28774;SDS011;15926;51.348;6.596;2023-12-22T00:06:08;4.80;;;0.88;;
28774;SDS011;15926;51.348;6.596;2023-12-22T00:08:36;8.75;;;0.70;;
28774;SDS011;15926;51.348;6.596;2023-12-22T00:11:02;5.03;;;0.60;;
28774;SDS011;15926;51.348;6.596;2023-12-22T00:13:28;3.63;;;0.50;;
28774;SDS011;15926;51.348;6.596;2023-12-22T00:15:54;2.70;;;0.60;;
28774;SDS011;15926;51.348;6.596;2023-12-22T00:18:21;4.03;;;0.98;;
28774;SDS011;15926;51.348;6.596;2023-12-22T00:20:47;2.45;;;0.50;;
28774;SDS011;15926;51.348;6.596;2023-12-22T00:23:13;7.28;;;1.08;;
28774;SDS011;15926;51.348;6.596;2023-12-22T00:25:39;2.50;;;0.73;;
28774;SDS011;15926;51.348;6.596;2023-12-22T00:28:05;6.07;;;0.80;;
28774;SDS011;15926;51.348;6.596;2023-12-22T00:30:31;6.22;;;0.85;;
28774;SDS011;15926;51.348;6.596;2023-12-22T00:32:57;5.18;;;0.70;;
28774;SDS011;15926;51.348;6.596;2023-12-22T00:35:23;5.97;;;0.90;;
28774;SDS011;15926;51.348;6.596;2023-12-22T00:37:49;8.75;;;1.10;;
28774;SDS011;15926;51.348;6.596;2023-12-22T00:40:15;4.20;;;0.60;;
28774;SDS011;15926;51.348;6.596;2023-12-22T00:42:42;7.03;;;1.40;;
28774;SDS011;15926;51.348;6.596;2023-12-22T00:45:08;5.80;;;1.08;;
28774;SDS011;15926;51.348;6.596;2023-12-22T00:47:34;7.10;;;0.80;;
28774;SDS011;15926;51.348;6.596;2023-12-22T00:50:01;7.60;;;0.82;;
28774;SDS011;15926;51.348;6.596;2023-12-22T00:52:27;5.63;;;0.88;;
28774;SDS011;15926;51.348;6.596;2023-12-22T00:54:54;3.88;;;0.70;;
28774;SDS011;15926;51.348;6.596;2023-12-22T00:57:20;7.53;;;1.10;;
28774;SDS011;15926;51.348;6.596;2023-12-22T00:59:46;4.53;;;0.80;;
28774;SDS011;15926;51.348;6.596;2023-12-22T01:02:15;9.05;;;1.00;;
28774;SDS011;15926;51.348;6.596;2023-12-22T01:04:41;5.72;;;1.13;;
28774;SDS011;15926;51.348;6.596;2023-12-22T01:07:08;6.88;;;1.20;;
28774;SDS011;15926;51.348;6.596;2023-12-22T01:09:35;7.60;;;1.20;;
28774;SDS011;15926;51.348;6.596;2023-12-22T01:12:02;7.57;;;0.98;;
28774;SDS011;15926;51.348;6.596;2023-12-22T01:14:29;5.30;;;0.93;;
28774;SDS011;15926;51.348;6.596;2023-12-22T01:16:55;4.60;;;0.88;;
28774;SDS011;15926;51.348;6.596;2023-12-22T01:19:21;13.82;;;1.85;;
28774;SDS011;15926;51.348;6.596;2023-12-22T01:21:47;4.63;;;0.80;;
28774;SDS011;15926;51.348;6.596;2023-12-22T01:24:14;7.38;;;1.20;;
28774;SDS011;15926;51.348;6.596;2023-12-22T01:26:40;8.35;;;1.10;;
28774;SDS011;15926;51.348;6.596;2023-12-22T01:29:06;8.35;;;1.40;;
28774;SDS011;15926;51.348;6.596;2023-12-22T01:31:33;6.22;;;1.30;;
28774;SDS011;15926;51.348;6.596;2023-12-22T01:33:59;12.05;;;1.58;;
28774;SDS011;15926;51.348;6.596;2023-12-22T01:36:25;7.70;;;1.38;;
28774;SDS011;15926;51.348;6.596;2023-12-22T01:38:51;4.63;;;1.00;;
28774;SDS011;15926;51.348;6.596;2023-12-22T01:41:17;5.22;;;1.20;;
28774;SDS011;15926;51.348;6.596;2023-12-22T01:43:43;7.53;;;1.27;;
28774;SDS011;15926;51.348;6.596;2023-12-22T01:46:10;11.98;;;1.58;;
28774;SDS011;15926;51.348;6.596;2023-12-22T01:48:37;5.72;;;1.38;;
28774;SDS011;15926;51.348;6.596;2023-12-22T01:51:03;8.57;;;1.38;;
28774;SDS011;15926;51.348;6.596;2023-12-22T01:53:30;8.13;;;1.30;;
28774;SDS011;15926;51.348;6.596;2023-12-22T01:55:56;9.27;;;0.98;;
28774;SDS011;15926;51.348;6.596;2023-12-22T01:58:24;7.65;;;1.13;;
28774;SDS011;15926;51.348;6.596;2023-12-22T02:00:54;8.10;;;1.15;;
28774;SDS011;15926;51.348;6.596;2023-12-22T02:03:21;5.30;;;1.00;;
28774;SDS011;15926;51.348;6.596;2023-12-22T02:05:47;5.05;;;1.20;;
28774;SDS011;15926;51.348;6.596;2023-12-22T02:08:14;7.30;;;1.40;;
28774;SDS011;15926;51.348;6.596;2023-12-22T02:10:43;5.65;;;1.00;;
28774;SDS011;15926;51.348;6.596;2023-12-22T02:13:09;1.90;;;0.93;;
28774;SDS011;15926;51.348;6.596;2023-12-22T02:15:36;7.45;;;1.17;;
28774;SDS011;15926;51.348;6.596;2023-12-22T02:18:04;6.25;;;0.70;;
28774;SDS011;15926;51.348;6.596;2023-12-22T02:20:32;4.22;;;0.88;;
28774;SDS011;15926;51.348;6.596;2023-12-22T02:22:58;1.23;;;0.52;;
28774;SDS011;15926;51.348;6.596;2023-12-22T02:25:24;3.75;;;0.60;;
28774;SDS011;15926;51.348;6.596;2023-12-22T02:27:53;4.05;;;0.40;;
28774;SDS011;15926;51.348;6.596;2023-12-22T02:30:24;1.58;;;0.50;;
28774;SDS011;15926;51.348;6.596;2023-12-22T02:32:51;2.20;;;0.40;;
28774;SDS011;15926;51.348;6.596;2023-12-22T02:35:19;1.33;;;0.30;;
28774;SDS011;15926;51.348;6.596;2023-12-22T02:37:46;3.55;;;0.77;;
28774;SDS011;15926;51.348;6.596;2023-12-22T02:40:13;2.55;;;0.40;;
28774;SDS011;15926;51.348;6.596;2023-12-22T02:42:39;2.17;;;0.50;;
28774;SDS011;15926;51.348;6.596;2023-12-22T02:45:06;2.03;;;0.45;;
28774;SDS011;15926;51.348;6.596;2023-12-22T02:47:32;5.40;;;0.50;;
28774;SDS011;15926;51.348;6.596;2023-12-22T02:50:09;6.20;;;1.10;;
28774;SDS011;15926;51.348;6.596;2023-12-22T02:52:35;1.38;;;0.50;;
28774;SDS011;15926;51.348;6.596;2023-12-22T02:55:01;2.20;;;0.60;;
28774;SDS011;15926;51.348;6.596;2023-12-22T03:03:58;5.25;;;0.68;;
28774;SDS011;15926;51.348;6.596;2023-12-22T03:12:41;2.70;;;0.52;;
28774;SDS011;15926;51.348;6.596;2023-12-22T03:21:32;6.63;;;0.70;;
28774;SDS011;15926;51.348;6.596;2023-12-22T03:24:05;6.40;;;0.88;;
28774;SDS011;15926;51.348;6.596;2023-12-22T03:35:35;3.10;;;0.88;;
28774;SDS011;15926;51.348;6.596;2023-12-22T03:38:04;6.78;;;1.08;;
28774;SDS011;15926;51.348;6.596;2023-12-22T03:47:16;6.68;;;1.23;;
28774;SDS011;15926;51.348;6.596;2023-12-22T03:53:13;4.18;;;0.85;;
28774;SDS011;15926;51.348;6.596;2023-12-22T03:55:42;4.10;;;1.10;;
28774;SDS011;15926;51.348;6.596;2023-12-22T03:58:08;11.77;;;1.17;;
28774;SDS011;15926;51.348;6.596;2023-12-22T04:00:35;5.88;;;1.05;;
28774;SDS011;15926;51.348;6.596;2023-12-22T04:03:10;14.93;;;1.60;;
28774;SDS011;15926;51.348;6.596;2023-12-22T04:05:36;6.80;;;1.08;;
28774;SDS011;15926;51.348;6.596;2023-12-22T04:08:02;9.40;;;1.70;;
28774;SDS011;15926;51.348;6.596;2023-12-22T04:10:28;15.43;;;1.40;;
28774;SDS011;15926;51.348;6.596;2023-12-22T04:12:54;8.68;;;2.80;;
28774;SDS011;15926;51.348;6.596;2023-12-22T04:15:20;10.27;;;1.75;;
28774;SDS011;15926;51.348;6.596;2023-12-22T04:17:46;7.82;;;1.33;;
28774;SDS011;15926;51.348;6.596;2023-12-22T04:20:21;6.65;;;1.73;;
28774;SDS011;15926;51.348;6.596;2023-12-22T04:22:49;9.15;;;1.42;;
28774;SDS011;15926;51.348;6.596;2023-12-22T04:25:15;13.98;;;1.67;;
28774;SDS011;15926;51.348;6.596;2023-12-22T04:27:41;11.93;;;1.92;;
28774;SDS011;15926;51.348;6.596;2023-12-22T04:30:08;16.65;;;1.60;;
28774;SDS011;15926;51.348;6.596;2023-12-22T04:32:34;9.98;;;1.80;;
28774;SDS011;15926;51.348;6.596;2023-12-22T04:35:00;7.88;;;1.80;;
28774;SDS011;15926;51.348;6.596;2023-12-22T04:37:26;18.42;;;2.03;;
28774;SDS011;15926;51.348;6.596;2023-12-22T04:39:52;9.27;;;1.17;;
28774;SDS011;15926;51.348;6.596;2023-12-22T04:45:19;14.40;;;2.90;;
28774;SDS011;15926;51.348;6.596;2023-12-22T04:48:10;10.55;;;1.73;;
28774;SDS011;15926;51.348;6.596;2023-12-22T04:50:36;6.72;;;1.67;;
28774;SDS011;15926;51.348;6.596;2023-12-22T04:53:03;11.65;;;2.03;;
28774;SDS011;15926;51.348;6.596;2023-12-22T04:55:29;13.82;;;3.53;;
28774;SDS011;15926;51.348;6.596;2023-12-22T04:57:55;14.27;;;2.53;;
28774;SDS011;15926;51.348;6.596;2023-12-22T05:00:21;12.20;;;1.50;;
28774;SDS011;15926;51.348;6.596;2023-12-22T05:02:47;15.80;;;1.58;;
28774;SDS011;15926;51.348;6.596;2023-12-22T05:05:13;15.98;;;2.03;;
28774;SDS011;15926;51.348;6.596;2023-12-22T05:07:40;14.27;;;1.90;;
28774;SDS011;15926;51.348;6.596;2023-12-22T05:10:06;17.50;;;1.95;;
28774;SDS011;15926;51.348;6.596;2023-12-22T05:12:35;10.73;;;2.15;;
28774;SDS011;15926;51.348;6.596;2023-12-22T05:15:01;10.43;;;1.70;;
28774;SDS011;15926;51.348;6.596;2023-12-22T05:17:30;11.35;;;2.33;;
28774;SDS011;15926;51.348;6.596;2023-12-22T05:20:16;11.32;;;2.17;;
28774;SDS011;15926;51.348;6.596;2023-12-22T05:22:42;21.05;;;2.63;;
28774;SDS011;15926;51.348;6.596;2023-12-22T05:25:12;12.25;;;1.73;;
28774;SDS011;15926;51.348;6.596;2023-12-22T05:27:38;12.55;;;2.45;;
28774;SDS011;15926;51.348;6.596;2023-12-22T05:30:06;11.75;;;1.88;;
28774;SDS011;15926;51.348;6.596;2023-12-22T05:32:33;13.00;;;1.95;;
28774;SDS011;15926;51.348;6.596;2023-12-22T05:34:59;12.32;;;2.00;;
28774;SDS011;15926;51.348;6.596;2023-12-22T05:40:21;13.50;;;2.20;;
28774;SDS011;15926;51.348;6.596;2023-12-22T05:42:47;8.93;;;2.10;;
28774;SDS011;15926;51.348;6.596;2023-12-22T05:45:14;8.40;;;1.95;;
28774;SDS011;15926;51.348;6.596;2023-12-22T05:47:40;8.95;;;1.85;;
28774;SDS011;15926;51.348;6.596;2023-12-22T05:50:07;9.63;;;1.30;;
28774;SDS011;15926;51.348;6.596;2023-12-22T05:52:33;15.23;;;1.70;;
28774;SDS011;15926;51.348;6.596;2023-12-22T05:54:59;11.02;;;1.70;;
28774;SDS011;15926;51.348;6.596;2023-12-22T05:57:25;10.50;;;1.48;;
28774;SDS011;15926;51.348;6.596;2023-12-22T06:02:51;9.85;;;1.48;;
28774;SDS011;15926;51.348;6.596;2023-12-22T06:05:17;10.52;;;1.60;;
28774;SDS011;15926;51.348;6.596;2023-12-22T06:07:43;6.88;;;1.30;;
28774;SDS011;15926;51.348;6.596;2023-12-22T06:19:09;9.32;;;1.83;;
28774;SDS011;15926;51.348;6.596;2023-12-22T06:28:06;12.05;;;2.38;;
28774;SDS011;15926;51.348;6.596;2023-12-22T06:39:36;8.32;;;1.83;;
28774;SDS011;15926;51.348;6.596;2023-12-22T06:45:36;8.23;;;1.38;;
28774;SDS011;15926;51.348;6.596;2023-12-22T06:51:39;9.63;;;2.00;;
28774;SDS011;15926;51.348;6.596;2023-12-22T06:54:30;10.35;;;2.05;;
28774;SDS011;15926;51.348;6.596;2023-12-22T06:57:04;8.65;;;1.38;;
28774;SDS011;15926;51.348;6.596;2023-12-22T07:05:44;9.75;;;1.60;;
28774;SDS011;15926;51.348;6.596;2023-12-22T07:08:10;5.55;;;1.48;;
28774;SDS011;15926;51.348;6.596;2023-12-22T07:10:36;8.13;;;1.33;;
28774;SDS011;15926;51.348;6.596;2023-12-22T07:13:03;6.57;;;1.55;;
28774;SDS011;15926;51.348;6.596;2023-12-22T07:15:29;6.35;;;1.50;;
28774;SDS011;15926;51.348;6.596;2023-12-22T07:17:57;10.25;;;1.50;;
28774;SDS011;15926;51.348;6.596;2023-12-22T07:20:26;13.35;;;1.83;;
28774;SDS011;15926;51.348;6.596;2023-12-22T07:22:55;10.50;;;2.72;;
28774;SDS011;15926;51.348;6.596;2023-12-22T07:25:21;5.32;;;1.15;;
28774;SDS011;15926;51.348;6.596;2023-12-22T07:27:47;7.55;;;2.67;;
28774;SDS011;15926;51.348;6.596;2023-12-22T07:30:14;7.55;;;1.67;;
28774;SDS011;15926;51.348;6.596;2023-12-22T07:32:41;13.38;;;1.90;;
28774;SDS011;15926;51.348;6.596;2023-12-22T07:35:09;14.68;;;3.10;;
28774;SDS011;15926;51.348;6.596;2023-12-22T07:37:41;9.55;;;1.75;;
28774;SDS011;15926;51.348;6.596;2023-12-22T07:40:54;8.70;;;1.85;;
28774;SDS011;15926;51.348;6.596;2023-12-22T07:43:20;14.18;;;2.08;;
28774;SDS011;15926;51.348;6.596;2023-12-22T07:45:46;13.90;;;2.33;;
28774;SDS011;15926;51.348;6.596;2023-12-22T07:54:05;10.35;;;1.92;;
28774;SDS011;15926;51.348;6.596;2023-12-22T07:56:31;15.00;;;3.65;;
28774;SDS011;15926;51.348;6.596;2023-12-22T07:59:29;20.38;;;4.20;;
28774;SDS011;15926;51.348;6.596;2023-12-22T08:02:00;12.50;;;2.55;;
28774;SDS011;15926;51.348;6.596;2023-12-22T08:04:27;15.27;;;2.67;;
28774;SDS011;15926;51.348;6.596;2023-12-22T08:13:07;15.82;;;3.40;;
28774;SDS011;15926;51.348;6.596;2023-12-22T08:15:36;21.05;;;3.45;;
28774;SDS011;15926;51.348;6.596;2023-12-22T08:18:03;27.75;;;4.50;;
28774;SDS011;15926;51.348;6.596;2023-12-22T08:20:29;15.77;;;2.75;;
28774;SDS011;15926;51.348;6.596;2023-12-22T08:22:55;20.77;;;3.95;;
28774;SDS011;15926;51.348;6.596;2023-12-22T08:25:21;27.40;;;4.40;;
28774;SDS011;15926;51.348;6.596;2023-12-22T08:30:17;22.08;;;3.95;;
28774;SDS011;15926;51.348;6.596;2023-12-22T08:32:43;25.08;;;5.03;;
28774;SDS011;15926;51.348;6.596;2023-12-22T08:35:12;26.23;;;4.22;;
28774;SDS011;15926;51.348;6.596;2023-12-22T08:37:38;25.75;;;5.05;;
28774;SDS011;15926;51.348;6.596;2023-12-22T08:40:07;28.30;;;6.03;;
28774;SDS011;15926;51.348;6.596;2023-12-22T08:45:38;32.33;;;5.93;;
28774;SDS011;15926;51.348;6.596;2023-12-22T08:48:04;27.63;;;5.15;;
28774;SDS011;15926;51.348;6.596;2023-12-22T08:50:32;35.73;;;5.40;;
28774;SDS011;15926;51.348;6.596;2023-12-22T08:52:58;31.23;;;5.20;;
28774;SDS011;15926;51.348;6.596;2023-12-22T08:55:25;26.80;;;6.13;;
28774;SDS011;15926;51.348;6.596;2023-12-22T08:57:53;32.50;;;5.45;;
28774;SDS011;15926;51.348;6.596;2023-12-22T09:00:19;39.00;;;7.00;;
28774;SDS011;15926;51.348;6.596;2023-12-22T09:02:45;32.42;;;5.70;;
28774;SDS011;15926;51.348;6.596;2023-12-22T09:05:11;28.17;;;5.35;;
28774;SDS011;15926;51.348;6.596;2023-12-22T09:07:37;30.38;;;6.13;;
28774;SDS011;15926;51.348;6.596;2023-12-22T09:10:04;31.20;;;6.30;;
28774;SDS011;15926;51.348;6.596;2023-12-22T09:12:39;26.67;;;4.97;;
28774;SDS011;15926;51.348;6.596;2023-12-22T09:15:05;20.67;;;4.07;;
28774;SDS011;15926;51.348;6.596;2023-12-22T09:17:32;32.65;;;5.10;;
28774;SDS011;15926;51.348;6.596;2023-12-22T09:19:58;25.63;;;4.75;;
28774;SDS011;15926;51.348;6.596;2023-12-22T09:22:24;24.73;;;4.40;;
28774;SDS011;15926;51.348;6.596;2023-12-22T09:24:50;28.70;;;4.68;;
28774;SDS011;15926;51.348;6.596;2023-12-22T09:27:19;19.77;;;3.95;;
28774;SDS011;15926;51.348;6.596;2023-12-22T09:29:45;18.17;;;4.40;;
28774;SDS011;15926;51.348;6.596;2023-12-22T09:32:11;40.70;;;9.88;;
28774;SDS011;15926;51.348;6.596;2023-12-22T09:34:37;22.75;;;3.75;;
28774;SDS011;15926;51.348;6.596;2023-12-22T09:37:04;16.23;;;3.38;;
28774;SDS011;15926;51.348;6.596;2023-12-22T09:39:30;19.20;;;3.80;;
28774;SDS011;15926;51.348;6.596;2023-12-22T09:41:56;18.02;;;3.05;;
28774;SDS011;15926;51.348;6.596;2023-12-22T09:44:22;14.73;;;2.58;;
28774;SDS011;15926;51.348;6.596;2023-12-22T09:46:48;13.82;;;2.42;;
28774;SDS011;15926;51.348;6.596;2023-12-22T09:51:44;15.60;;;2.53;;
28774;SDS011;15926;51.348;6.596;2023-12-22T09:54:10;11.20;;;2.20;;
28774;SDS011;15926;51.348;6.596;2023-12-22T09:56:37;14.93;;;2.83;;
28774;SDS011;15926;51.348;6.596;2023-12-22T09:59:11;16.17;;;1.95;;
28774;SDS011;15926;51.348;6.596;2023-12-22T10:01:39;12.85;;;2.10;;
28774;SDS011;15926;51.348;6.596;2023-12-22T10:04:06;9.17;;;2.17;;
28774;SDS011;15926;51.348;6.596;2023-12-22T10:06:32;9.65;;;1.60;;
28774;SDS011;15926;51.348;6.596;2023-12-22T10:08:58;7.10;;;1.85;;
28774;SDS011;15926;51.348;6.596;2023-12-22T10:11:24;12.88;;;2.05;;
28774;SDS011;15926;51.348;6.596;2023-12-22T10:13:51;8.50;;;1.52;;
28774;SDS011;15926;51.348;6.596;2023-12-22T10:16:18;6.93;;;1.45;;
28774;SDS011;15926;51.348;6.596;2023-12-22T10:18:44;4.78;;;1.30;;
28774;SDS011;15926;51.348;6.596;2023-12-22T10:21:10;6.47;;;1.48;;
28774;SDS011;15926;51.348;6.596;2023-12-22T10:23:36;7.68;;;1.70;;
28774;SDS011;15926;51.348;6.596;2023-12-22T10:26:03;5.60;;;1.10;;
28774;SDS011;15926;51.348;6.596;2023-12-22T10:28:29;5.22;;;1.40;;
28774;SDS011;15926;51.348;6.596;2023-12-22T10:30:55;7.70;;;1.35;;
28774;SDS011;15926;51.348;6.596;2023-12-22T10:33:24;9.07;;;1.50;;
28774;SDS011;15926;51.348;6.596;2023-12-22T10:35:50;7.68;;;1.20;;
28774;SDS011;15926;51.348;6.596;2023-12-22T10:38:18;9.57;;;1.67;;
28774;SDS011;15926;51.348;6.596;2023-12-22T10:40:45;3.50;;;1.08;;
28774;SDS011;15926;51.348;6.596;2023-12-22T10:43:12;4.82;;;1.30;;
28774;SDS011;15926;51.348;6.596;2023-12-22T10:45:39;6.43;;;1.35;;
28774;SDS011;15926;51.348;6.596;2023-12-22T10:48:06;5.28;;;1.33;;
28774;SDS011;15926;51.348;6.596;2023-12-22T10:50:32;5.55;;;1.33;;
28774;SDS011;15926;51.348;6.596;2023-12-22T10:52:58;2.42;;;1.00;;
28774;SDS011;15926;51.348;6.596;2023-12-22T10:55:26;4.78;;;1.20;;
28774;SDS011;15926;51.348;6.596;2023-12-22T10:57:52;6.95;;;1.05;;
28774;SDS011;15926;51.348;6.596;2023-12-22T11:00:19;2.90;;;1.05;;
28774;SDS011;15926;51.348;6.596;2023-12-22T11:02:49;2.55;;;0.70;;
28774;SDS011;15926;51.348;6.596;2023-12-22T11:07:43;3.67;;;0.82;;
28774;SDS011;15926;51.348;6.596;2023-12-22T11:10:11;3.67;;;1.10;;
28774;SDS011;15926;51.348;6.596;2023-12-22T11:12:38;2.75;;;0.85;;
28774;SDS011;15926;51.348;6.596;2023-12-22T11:15:14;5.20;;;1.00;;
28774;SDS011;15926;51.348;6.596;2023-12-22T11:17:41;4.50;;;1.10;;
28774;SDS011;15926;51.348;6.596;2023-12-22T11:20:12;3.22;;;0.95;;
28774;SDS011;15926;51.348;6.596;2023-12-22T11:22:38;4.82;;;0.80;;
28774;SDS011;15926;51.348;6.596;2023-12-22T11:25:04;2.08;;;0.90;;
28774;SDS011;15926;51.348;6.596;2023-12-22T11:27:33;3.85;;;0.75;;
28774;SDS011;15926;51.348;6.596;2023-12-22T11:30:00;4.20;;;1.00;;
28774;SDS011;15926;51.348;6.596;2023-12-22T11:32:26;4.00;;;1.20;;
28774;SDS011;15926;51.348;6.596;2023-12-22T11:34:54;3.80;;;0.70;;
28774;SDS011;15926;51.348;6.596;2023-12-22T11:37:22;4.05;;;0.80;;
28774;SDS011;15926;51.348;6.596;2023-12-22T11:39:48;3.13;;;0.68;;
28774;SDS011;15926;51.348;6.596;2023-12-22T11:42:17;1.85;;;0.82;;
28774;SDS011;15926;51.348;6.596;2023-12-22T11:44:43;3.00;;;0.90;;
28774;SDS011;15926;51.348;6.596;2023-12-22T11:47:09;3.40;;;0.80;;
28774;SDS011;15926;51.348;6.596;2023-12-22T11:49:38;2.25;;;0.60;;
28774;SDS011;15926;51.348;6.596;2023-12-22T11:52:14;5.78;;;0.95;;
28774;SDS011;15926;51.348;6.596;2023-12-22T11:59:56;3.63;;;1.13;;
28774;SDS011;15926;51.348;6.596;2023-12-22T12:02:22;1.95;;;0.63;;
28774;SDS011;15926;51.348;6.596;2023-12-22T12:04:48;1.75;;;1.05;;
28774;SDS011;15926;51.348;6.596;2023-12-22T12:09:59;3.08;;;0.70;;
28774;SDS011;15926;51.348;6.596;2023-12-22T12:12:25;4.40;;;1.15;;
28774;SDS011;15926;51.348;6.596;2023-12-22T12:14:52;4.10;;;1.00;;
28774;SDS011;15926;51.348;6.596;2023-12-22T12:17:21;4.50;;;0.75;;
28774;SDS011;15926;51.348;6.596;2023-12-22T12:19:48;3.05;;;0.73;;
28774;SDS011;15926;51.348;6.596;2023-12-22T12:22:14;0.70;;;0.50;;
28774;SDS011;15926;51.348;6.596;2023-12-22T12:24:41;4.97;;;0.80;;
28774;SDS011;15926;51.348;6.596;2023-12-22T12:27:07;5.10;;;0.80;;
28774;SDS011;15926;51.348;6.596;2023-12-22T12:29:33;2.97;;;1.02;;
28774;SDS011;15926;51.348;6.596;2023-12-22T12:32:03;1.67;;;0.68;;
28774;SDS011;15926;51.348;6.596;2023-12-22T12:34:30;2.92;;;0.93;;
28774;SDS011;15926;51.348;6.596;2023-12-22T12:36:56;2.60;;;0.70;;
28774;SDS011;15926;51.348;6.596;2023-12-22T12:39:22;2.15;;;0.90;;
28774;SDS011;15926;51.348;6.596;2023-12-22T12:41:53;5.65;;;0.93;;
28774;SDS011;15926;51.348;6.596;2023-12-22T12:44:21;2.45;;;0.90;;
28774;SDS011;15926;51.348;6.596;2023-12-22T12:46:48;5.25;;;2.00;;
28774;SDS011;15926;51.348;6.596;2023-12-22T12:49:14;3.90;;;0.90;;
28774;SDS011;15926;51.348;6.596;2023-12-22T12:51:41;2.55;;;0.88;;
28774;SDS011;15926;51.348;6.596;2023-12-22T12:54:08;2.55;;;0.80;;
28774;SDS011;15926;51.348;6.596;2023-12-22T12:56:41;3.75;;;1.10;;
28774;SDS011;15926;51.348;6.596;2023-12-22T12:59:13;2.85;;;0.85;;
28774;SDS011;15926;51.348;6.596;2023-12-22T13:01:40;6.28;;;1.10;;
28774;SDS011;15926;51.348;6.596;2023-12-22T13:04:06;2.22;;;0.98;;
28774;SDS011;15926;51.348;6.596;2023-12-22T13:06:32;5.57;;;1.40;;
28774;SDS011;15926;51.348;6.596;2023-12-22T13:08:58;1.02;;;0.93;;
28774;SDS011;15926;51.348;6.596;2023-12-22T13:11:31;3.40;;;0.85;;
28774;SDS011;15926;51.348;6.596;2023-12-22T13:13:57;6.07;;;1.58;;
28774;SDS011;15926;51.348;6.596;2023-12-22T13:16:26;1.30;;;0.98;;
28774;SDS011;15926;51.348;6.596;2023-12-22T13:18:56;6.38;;;1.10;;
28774;SDS011;15926;51.348;6.596;2023-12-22T13:21:23;2.20;;;1.02;;
28774;SDS011;15926;51.348;6.596;2023-12-22T13:26:37;2.15;;;0.88;;
28774;SDS011;15926;51.348;6.596;2023-12-22T13:29:05;5.95;;;0.90;;
28774;SDS011;15926;51.348;6.596;2023-12-22T13:31:31;1.92;;;0.88;;
28774;SDS011;15926;51.348;6.596;2023-12-22T13:34:00;2.83;;;1.10;;
28774;SDS011;15926;51.348;6.596;2023-12-22T13:36:26;3.45;;;1.10;;
28774;SDS011;15926;51.348;6.596;2023-12-22T13:38:52;3.17;;;1.17;;
28774;SDS011;15926;51.348;6.596;2023-12-22T13:41:18;3.50;;;1.08;;
28774;SDS011;15926;51.348;6.596;2023-12-22T13:43:45;5.20;;;1.30;;
28774;SDS011;15926;51.348;6.596;2023-12-22T13:46:12;4.25;;;1.25;;
28774;SDS011;15926;51.348;6.596;2023-12-22T13:48:38;2.17;;;0.93;;
28774;SDS011;15926;51.348;6.596;2023-12-22T13:51:04;4.53;;;1.30;;
28774;SDS011;15926;51.348;6.596;2023-12-22T13:53:30;4.20;;;1.20;;
28774;SDS011;15926;51.348;6.596;2023-12-22T13:55:56;4.45;;;1.00;;
28774;SDS011;15926;51.348;6.596;2023-12-22T13:58:22;7.38;;;1.40;;
28774;SDS011;15926;51.348;6.596;2023-12-22T14:00:48;4.40;;;1.58;;
28774;SDS011;15926;51.348;6.596;2023-12-22T14:03:14;4.18;;;1.08;;
28774;SDS011;15926;51.348;6.596;2023-12-22T14:05:41;5.22;;;1.05;;
28774;SDS011;15926;51.348;6.596;2023-12-22T14:08:07;8.95;;;1.38;;
28774;SDS011;15926;51.348;6.596;2023-12-22T14:10:33;3.10;;;1.00;;
28774;SDS011;15926;51.348;6.596;2023-12-22T14:12:59;5.55;;;2.05;;
28774;SDS011;15926;51.348;6.596;2023-12-22T14:15:25;3.63;;;1.05;;
28774;SDS011;15926;51.348;6.596;2023-12-22T14:17:55;5.15;;;1.17;;
28774;SDS011;15926;51.348;6.596;2023-12-22T14:20:21;2.25;;;1.10;;
28774;SDS011;15926;51.348;6.596;2023-12-22T14:22:47;3.90;;;1.25;;
28774;SDS011;15926;51.348;6.596;2023-12-22T14:25:13;4.53;;;1.13;;
28774;SDS011;15926;51.348;6.596;2023-12-22T14:27:39;7.65;;;1.15;;
28774;SDS011;15926;51.348;6.596;2023-12-22T14:30:05;7.63;;;1.35;;
28774;SDS011;15926;51.348;6.596;2023-12-22T14:32:31;7.35;;;1.50;;
28774;SDS011;15926;51.348;6.596;2023-12-22T14:34:57;2.85;;;0.70;;
28774;SDS011;15926;51.348;6.596;2023-12-22T14:37:23;6.25;;;1.20;;
28774;SDS011;15926;51.348;6.596;2023-12-22T14:39:49;3.38;;;1.05;;
28774;SDS011;15926;51.348;6.596;2023-12-22T14:42:15;7.50;;;1.80;;
28774;SDS011;15926;51.348;6.596;2023-12-22T14:44:41;4.50;;;1.15;;
28774;SDS011;15926;51.348;6.596;2023-12-22T14:47:07;5.65;;;1.15;;
28774;SDS011;15926;51.348;6.596;2023-12-22T14:49:33;5.72;;;1.38;;
28774;SDS011;15926;51.348;6.596;2023-12-22T14:51:59;5.35;;;0.93;;
28774;SDS011;15926;51.348;6.596;2023-12-22T14:54:25;5.70;;;1.35;;
28774;SDS011;15926;51.348;6.596;2023-12-22T14:56:51;6.25;;;1.02;;
28774;SDS011;15926;51.348;6.596;2023-12-22T14:59:18;1.40;;;0.70;;
28774;SDS011;15926;51.348;6.596;2023-12-22T15:01:44;3.33;;;1.75;;
28774;SDS011;15926;51.348;6.596;2023-12-22T15:04:10;8.02;;;1.00;;
28774;SDS011;15926;51.348;6.596;2023-12-22T15:06:39;5.35;;;1.10;;
28774;SDS011;15926;51.348;6.596;2023-12-22T15:09:06;6.72;;;1.20;;
28774;SDS011;15926;51.348;6.596;2023-12-22T15:11:32;2.25;;;0.90;;
28774;SDS011;15926;51.348;6.596;2023-12-22T15:13:58;2.58;;;1.20;;
28774;SDS011;15926;51.348;6.596;2023-12-22T15:16:25;8.15;;;0.95;;
28774;SDS011;15926;51.348;6.596;2023-12-22T15:18:51;5.55;;;1.30;;
28774;SDS011;15926;51.348;6.596;2023-12-22T15:21:20;5.22;;;1.20;;
28774;SDS011;15926;51.348;6.596;2023-12-22T15:23:46;3.83;;;1.13;;
28774;SDS011;15926;51.348;6.596;2023-12-22T15:26:22;3.72;;;0.90;;
28774;SDS011;15926;51.348;6.596;2023-12-22T15:28:51;6.07;;;1.13;;
28774;SDS011;15926;51.348;6.596;2023-12-22T15:31:17;7.07;;;1.08;;
28774;SDS011;15926;51.348;6.596;2023-12-22T15:33:43;3.88;;;0.80;;
28774;SDS011;15926;51.348;6.596;2023-12-22T15:36:18;7.15;;;1.35;;
28774;SDS011;15926;51.348;6.596;2023-12-22T15:38:47;6.10;;;0.98;;
28774;SDS011;15926;51.348;6.596;2023-12-22T15:43:40;3.85;;;0.90;;
28774;SDS011;15926;51.348;6.596;2023-12-22T15:46:06;8.88;;;1.25;;
28774;SDS011;15926;51.348;6.596;2023-12-22T15:48:33;5.72;;;1.10;;
28774;SDS011;15926;51.348;6.596;2023-12-22T15:51:06;3.17;;;0.80;;
28774;SDS011;15926;51.348;6.596;2023-12-22T15:53:42;7.80;;;1.60;;
28774;SDS011;15926;51.348;6.596;2023-12-22T15:56:08;7.15;;;1.42;;
28774;SDS011;15926;51.348;6.596;2023-12-22T15:58:36;3.50;;;1.25;;
28774;SDS011;15926;51.348;6.596;2023-12-22T16:01:03;5.30;;;1.05;;
28774;SDS011;15926;51.348;6.596;2023-12-22T16:03:29;4.80;;;1.23;;
28774;SDS011;15926;51.348;6.596;2023-12-22T16:05:55;4.18;;;1.15;;
28774;SDS011;15926;51.348;6.596;2023-12-22T16:11:07;4.88;;;0.80;;
28774;SDS011;15926;51.348;6.596;2023-12-22T16:13:39;2.17;;;0.95;;
28774;SDS011;15926;51.348;6.596;2023-12-22T16:16:05;3.20;;;0.88;;
28774;SDS011;15926;51.348;6.596;2023-12-22T16:18:32;3.13;;;0.95;;
28774;SDS011;15926;51.348;6.596;2023-12-22T16:20:58;6.03;;;1.17;;
28774;SDS011;15926;51.348;6.596;2023-12-22T16:23:27;2.97;;;1.25;;
28774;SDS011;15926;51.348;6.596;2023-12-22T16:25:54;3.83;;;1.33;;
28774;SDS011;15926;51.348;6.596;2023-12-22T16:28:21;11.50;;;1.33;;
28774;SDS011;15926;51.348;6.596;2023-12-22T16:30:47;6.32;;;1.58;;
28774;SDS011;15926;51.348;6.596;2023-12-22T16:33:14;5.47;;;1.45;;
28774;SDS011;15926;51.348;6.596;2023-12-22T16:35:40;4.82;;;1.98;;
28774;SDS011;15926;51.348;6.596;2023-12-22T16:38:07;5.85;;;1.38;;
28774;SDS011;15926;51.348;6.596;2023-12-22T16:40:33;9.25;;;1.67;;
28774;SDS011;15926;51.348;6.596;2023-12-22T16:42:59;6.72;;;1.98;;
28774;SDS011;15926;51.348;6.596;2023-12-22T16:45:25;11.05;;;2.03;;
28774;SDS011;15926;51.348;6.596;2023-12-22T16:47:51;11.57;;;1.98;;